createdAt,value
2022-12-31T00:00:46.886Z,12.20
2022-12-31T00:01:43.521Z,14.02
2022-12-31T00:02:40.221Z,12.45
2022-12-31T00:03:38.755Z,15.30
2022-12-31T00:04:35.427Z,17.90
2022-12-31T00:05:33.409Z,16.17
2022-12-31T00:06:29.993Z,17.38
2022-12-31T00:07:26.579Z,17.83
2022-12-31T00:08:23.140Z,17.48
2022-12-31T00:09:19.699Z,15.02
2022-12-31T00:10:16.324Z,11.93
2022-12-31T00:11:13.859Z,15.50
2022-12-31T00:12:10.576Z,14.38
2022-12-31T00:13:12.039Z,13.32
2022-12-31T00:14:08.683Z,14.52
2022-12-31T00:15:05.903Z,14.27
2022-12-31T00:16:12.445Z,13.98
2022-12-31T00:17:09.284Z,12.63
2022-12-31T00:18:06.190Z,12.88
2022-12-31T00:19:04.202Z,12.23
2022-12-31T00:20:00.855Z,13.38
2022-12-31T00:20:57.433Z,15.38
2022-12-31T00:21:54.050Z,21.08
2022-12-31T00:22:50.771Z,15.80
2022-12-31T00:23:47.859Z,14.45
2022-12-31T00:24:44.542Z,14.70
2022-12-31T00:25:41.136Z,14.55
2022-12-31T00:26:37.780Z,15.18
2022-12-31T00:27:34.408Z,14.85
2022-12-31T00:28:31.517Z,14.77
2022-12-31T00:29:28.185Z,13.07
2022-12-31T00:30:24.833Z,15.32
2022-12-31T00:31:24.496Z,13.60
2022-12-31T00:32:21.094Z,14.52
2022-12-31T00:33:17.755Z,14.23
2022-12-31T00:34:14.285Z,16.50
2022-12-31T00:35:10.827Z,13.18
2022-12-31T00:36:12.190Z,10.25
2022-12-31T00:37:08.845Z,9.30
2022-12-31T00:38:05.429Z,8.60
2022-12-31T00:39:04.142Z,9.40
2022-12-31T00:40:00.717Z,8.75
2022-12-31T00:40:57.279Z,9.38
2022-12-31T00:41:54.010Z,6.93
2022-12-31T00:42:50.597Z,6.72
2022-12-31T00:43:48.284Z,7.10
2022-12-31T00:44:44.917Z,5.57
2022-12-31T00:45:41.554Z,6.90
2022-12-31T00:47:34.041Z,7.60
2022-12-31T00:48:31.106Z,7.32
2022-12-31T00:49:27.651Z,6.40
2022-12-31T00:50:24.331Z,7.20
2022-12-31T00:51:23.503Z,6.30
2022-12-31T00:52:20.173Z,6.47
2022-12-31T00:53:16.766Z,5.90
2022-12-31T00:54:13.667Z,5.70
2022-12-31T00:55:10.278Z,5.65
2022-12-31T00:56:15.726Z,7.18
2022-12-31T00:57:12.471Z,7.72
2022-12-31T00:58:09.257Z,9.02
2022-12-31T00:59:06.177Z,10.10
2022-12-31T01:00:02.886Z,9.60
2022-12-31T01:01:07.596Z,7.85
2022-12-31T01:02:04.487Z,9.10
2022-12-31T01:03:01.703Z,9.82
2022-12-31T01:04:02.758Z,9.48
2022-12-31T01:04:59.375Z,11.25
2022-12-31T01:05:59.261Z,8.77
2022-12-31T01:06:55.839Z,6.88
2022-12-31T01:07:52.429Z,7.00
2022-12-31T01:08:50.412Z,6.47
2022-12-31T01:09:46.962Z,8.23
2022-12-31T01:11:07.560Z,8.27
2022-12-31T01:12:04.392Z,8.65
2022-12-31T01:13:00.959Z,6.57
2022-12-31T01:14:10.635Z,6.07
2022-12-31T01:15:07.526Z,7.88
2022-12-31T01:16:11.811Z,8.70
2022-12-31T01:17:08.512Z,6.80
2022-12-31T01:18:07.466Z,5.82
2022-12-31T01:19:07.033Z,7.88
2022-12-31T01:20:03.709Z,7.03
2022-12-31T01:21:03.348Z,6.35
2022-12-31T01:21:59.955Z,7.97
2022-12-31T01:22:56.533Z,7.78
2022-12-31T01:23:53.152Z,6.60
2022-12-31T01:24:49.885Z,6.88
2022-12-31T01:25:46.471Z,7.65
2022-12-31T01:26:43.935Z,7.97
2022-12-31T01:27:40.524Z,5.90
2022-12-31T01:28:37.437Z,6.18
2022-12-31T01:29:34.138Z,6.63
2022-12-31T01:30:30.861Z,8.27
2022-12-31T01:31:28.293Z,9.07
2022-12-31T01:32:24.919Z,9.13
2022-12-31T01:33:21.707Z,6.13
2022-12-31T01:34:18.366Z,6.60
2022-12-31T01:35:14.990Z,7.70
2022-12-31T01:36:16.854Z,6.97
2022-12-31T01:37:15.547Z,7.03
2022-12-31T01:38:12.149Z,7.38
2022-12-31T01:39:09.522Z,7.80
2022-12-31T01:40:06.687Z,6.18
2022-12-31T01:41:03.994Z,9.38
2022-12-31T01:42:00.602Z,8.10
2022-12-31T01:42:58.464Z,6.43
2022-12-31T01:43:58.798Z,6.30
2022-12-31T01:44:56.406Z,6.38
2022-12-31T01:45:54.694Z,8.35
2022-12-31T01:46:56.368Z,14.45
2022-12-31T01:47:58.101Z,10.25
2022-12-31T01:48:59.244Z,6.22
2022-12-31T01:50:03.197Z,6.45
2022-12-31T01:50:59.873Z,6.30
2022-12-31T01:52:17.934Z,5.70
2022-12-31T01:53:16.185Z,6.22
2022-12-31T01:54:16.166Z,6.95
2022-12-31T01:55:16.551Z,8.43
2022-12-31T01:56:13.350Z,7.55
2022-12-31T01:57:11.352Z,6.93
2022-12-31T01:58:28.627Z,7.57
2022-12-31T01:59:27.603Z,6.90
2022-12-31T02:00:24.494Z,7.13
2022-12-31T02:01:31.077Z,6.13
2022-12-31T02:02:28.169Z,6.35
2022-12-31T02:03:27.344Z,7.13
2022-12-31T02:04:26.602Z,9.02
2022-12-31T02:05:32.582Z,8.35
2022-12-31T02:06:35.118Z,6.50
2022-12-31T02:08:28.256Z,7.35
2022-12-31T02:09:24.944Z,11.80
2022-12-31T02:10:21.553Z,12.00
2022-12-31T02:11:22.793Z,13.23
2022-12-31T02:12:19.708Z,9.40
2022-12-31T02:13:16.533Z,9.45
2022-12-31T02:14:16.210Z,8.15
2022-12-31T02:15:12.948Z,15.60
2022-12-31T02:16:20.551Z,18.85
2022-12-31T02:17:37.875Z,11.00
2022-12-31T02:18:49.957Z,10.95
2022-12-31T02:20:05.502Z,13.48
2022-12-31T02:21:15.993Z,12.27
2022-12-31T02:22:57.448Z,13.63
2022-12-31T02:24:25.098Z,12.63
2022-12-31T02:25:36.728Z,11.88
2022-12-31T02:26:51.996Z,11.13
2022-12-31T02:27:56.875Z,10.48
2022-12-31T02:29:08.780Z,13.50
2022-12-31T02:30:05.422Z,11.85
2022-12-31T02:31:12.334Z,11.88
2022-12-31T02:32:24.846Z,13.35
2022-12-31T02:33:43.805Z,13.07
2022-12-31T02:34:47.395Z,12.77
2022-12-31T02:35:58.138Z,12.93
2022-12-31T02:36:57.784Z,11.63
2022-12-31T02:38:01.531Z,13.50
2022-12-31T02:38:59.488Z,11.77
2022-12-31T02:39:57.608Z,12.70
2022-12-31T02:40:54.982Z,12.15
2022-12-31T02:41:52.486Z,12.68
2022-12-31T02:42:55.118Z,13.70
2022-12-31T02:43:52.335Z,13.85
2022-12-31T02:44:49.070Z,15.48
2022-12-31T02:45:51.184Z,15.15
2022-12-31T02:47:23.237Z,15.77
2022-12-31T02:48:52.619Z,13.05
2022-12-31T02:50:13.687Z,14.77
2022-12-31T02:51:16.566Z,12.35
2022-12-31T02:52:25.697Z,15.88
2022-12-31T02:54:00.391Z,12.55
2022-12-31T02:55:11.662Z,12.80
2022-12-31T02:56:22.802Z,11.02
2022-12-31T02:57:28.375Z,11.52
2022-12-31T02:59:12.885Z,12.13
2022-12-31T03:00:32.173Z,10.50
2022-12-31T03:01:53.784Z,11.07
2022-12-31T03:02:52.706Z,11.60
2022-12-31T03:04:09.313Z,11.90
2022-12-31T03:05:06.968Z,10.80
2022-12-31T03:06:04.837Z,13.40
2022-12-31T03:07:14.819Z,12.65
2022-12-31T03:08:11.478Z,11.30
2022-12-31T03:09:13.711Z,11.85
2022-12-31T03:10:11.293Z,13.02
2022-12-31T03:11:27.833Z,12.18
2022-12-31T03:12:45.736Z,11.23
2022-12-31T03:13:42.279Z,11.90
2022-12-31T03:14:39.190Z,11.27
2022-12-31T03:15:35.848Z,10.57
2022-12-31T03:16:32.845Z,10.25
2022-12-31T03:17:29.596Z,10.65
2022-12-31T03:18:46.114Z,9.68
2022-12-31T03:20:01.303Z,10.20
2022-12-31T03:21:16.407Z,9.52
2022-12-31T03:22:28.555Z,8.70
2022-12-31T03:23:31.301Z,9.88
2022-12-31T03:24:46.674Z,11.15
2022-12-31T03:25:44.124Z,9.20
2022-12-31T03:26:40.778Z,9.05
2022-12-31T03:27:37.424Z,9.10
2022-12-31T03:28:34.093Z,10.65
2022-12-31T03:29:30.721Z,9.95
2022-12-31T03:30:28.202Z,10.07
2022-12-31T03:31:24.891Z,11.20
2022-12-31T03:32:21.480Z,10.82
2022-12-31T03:33:18.337Z,10.88
2022-12-31T03:34:15.721Z,16.83
2022-12-31T03:35:14.136Z,14.77
2022-12-31T03:36:14.095Z,15.85
2022-12-31T03:37:10.653Z,15.75
2022-12-31T03:38:07.839Z,13.98
2022-12-31T03:39:04.843Z,13.90
2022-12-31T03:40:01.483Z,10.82
2022-12-31T03:40:58.128Z,8.55
2022-12-31T03:41:54.771Z,9.73
2022-12-31T03:42:51.479Z,8.35
2022-12-31T03:43:48.101Z,8.00
2022-12-31T03:44:44.708Z,8.70
2022-12-31T03:45:41.908Z,7.60
2022-12-31T03:46:38.563Z,6.97
2022-12-31T03:47:35.191Z,7.60
2022-12-31T03:48:31.849Z,7.32
2022-12-31T03:49:28.577Z,7.40
2022-12-31T03:50:25.280Z,7.05
2022-12-31T03:51:21.905Z,6.43
2022-12-31T03:52:18.602Z,6.70
2022-12-31T03:53:15.291Z,7.20
2022-12-31T03:54:12.073Z,6.82
2022-12-31T03:55:10.318Z,6.05
2022-12-31T03:56:07.269Z,7.07
2022-12-31T03:57:03.995Z,7.30
2022-12-31T03:58:00.628Z,5.55
2022-12-31T03:58:57.225Z,8.10
2022-12-31T03:59:53.869Z,9.10
2022-12-31T04:00:51.073Z,11.48
2022-12-31T04:01:47.836Z,13.88
2022-12-31T04:02:45.073Z,8.63
2022-12-31T04:03:41.698Z,8.38
2022-12-31T04:04:38.346Z,9.77
2022-12-31T04:05:34.986Z,10.00
2022-12-31T04:06:31.650Z,9.57
2022-12-31T04:07:28.357Z,9.40
2022-12-31T04:08:25.178Z,9.90
2022-12-31T04:09:22.039Z,9.88
2022-12-31T04:10:19.711Z,8.20
2022-12-31T04:11:20.779Z,8.80
2022-12-31T04:12:17.812Z,7.95
2022-12-31T04:13:14.503Z,8.98
2022-12-31T04:14:11.818Z,8.48
2022-12-31T04:15:15.121Z,8.57
2022-12-31T04:16:11.729Z,6.20
2022-12-31T04:17:08.427Z,6.85
2022-12-31T04:18:05.099Z,6.70
2022-12-31T04:19:01.734Z,6.65
2022-12-31T04:19:58.596Z,6.25
2022-12-31T04:20:55.287Z,6.50
2022-12-31T04:21:52.130Z,5.95
2022-12-31T04:22:48.686Z,6.00
2022-12-31T04:23:45.305Z,6.35
2022-12-31T04:24:43.089Z,7.15
2022-12-31T04:25:39.781Z,7.43
2022-12-31T04:26:37.271Z,7.05
2022-12-31T04:27:34.059Z,8.45
2022-12-31T04:28:30.723Z,7.25
2022-12-31T04:29:27.553Z,7.82
2022-12-31T04:30:24.180Z,7.45
2022-12-31T04:31:20.931Z,7.88
2022-12-31T04:32:17.670Z,7.53
2022-12-31T04:33:14.287Z,8.02
2022-12-31T04:34:10.947Z,7.22
2022-12-31T04:35:08.392Z,7.53
2022-12-31T04:36:07.212Z,7.35
2022-12-31T04:37:04.248Z,7.57
2022-12-31T04:38:00.905Z,7.57
2022-12-31T04:38:57.535Z,7.38
2022-12-31T04:39:54.172Z,6.97
2022-12-31T04:41:09.452Z,6.50
2022-12-31T04:42:06.080Z,7.05
2022-12-31T04:43:02.662Z,6.72
2022-12-31T04:44:00.410Z,5.22
2022-12-31T04:44:56.975Z,5.10
2022-12-31T04:45:53.597Z,6.28
2022-12-31T04:46:50.255Z,7.00
2022-12-31T04:47:46.801Z,6.95
2022-12-31T04:48:43.969Z,9.23
2022-12-31T04:49:40.622Z,11.02
2022-12-31T04:50:37.304Z,7.13
2022-12-31T04:51:34.309Z,7.50
2022-12-31T04:52:30.990Z,8.43
2022-12-31T04:53:28.228Z,9.23
2022-12-31T04:54:24.850Z,9.07
2022-12-31T04:55:21.461Z,9.63
2022-12-31T04:56:19.021Z,11.23
2022-12-31T04:57:15.568Z,10.85
2022-12-31T04:58:12.111Z,12.10
2022-12-31T04:59:10.087Z,12.05
2022-12-31T05:00:08.076Z,11.70
2022-12-31T05:01:05.719Z,13.65
2022-12-31T05:02:02.651Z,13.27
2022-12-31T05:02:59.470Z,13.77
2022-12-31T05:03:56.070Z,12.57
2022-12-31T05:04:52.669Z,15.90
2022-12-31T05:05:50.112Z,15.77
2022-12-31T05:06:46.718Z,13.82
2022-12-31T05:07:43.307Z,19.77
2022-12-31T05:08:40.738Z,18.42
2022-12-31T05:09:38.417Z,16.48
2022-12-31T05:10:35.263Z,18.95
2022-12-31T05:11:31.998Z,22.30
2022-12-31T05:12:28.862Z,25.63
2022-12-31T05:13:31.187Z,23.30
2022-12-31T05:14:29.819Z,16.95
2022-12-31T05:15:26.453Z,19.38
2022-12-31T05:16:23.192Z,23.25
2022-12-31T05:17:20.844Z,22.08
2022-12-31T05:18:18.231Z,21.95
2022-12-31T05:19:14.989Z,22.42
2022-12-31T05:20:11.618Z,27.13
2022-12-31T05:21:08.452Z,24.20
2022-12-31T05:22:23.707Z,25.15
2022-12-31T05:23:20.378Z,22.60
2022-12-31T05:24:16.989Z,22.48
2022-12-31T05:25:13.737Z,20.20
2022-12-31T05:26:10.421Z,19.95
2022-12-31T05:27:07.125Z,22.60
2022-12-31T05:28:03.792Z,21.50
2022-12-31T05:29:00.621Z,22.33
2022-12-31T05:29:57.311Z,23.10
2022-12-31T05:30:54.281Z,21.33
2022-12-31T05:31:50.892Z,24.58
2022-12-31T05:32:47.599Z,21.30
2022-12-31T05:33:44.430Z,19.15
2022-12-31T05:34:41.123Z,24.17
2022-12-31T05:35:37.808Z,21.92
2022-12-31T05:36:34.417Z,20.05
2022-12-31T05:37:31.971Z,16.45
2022-12-31T05:38:28.644Z,16.45
2022-12-31T05:39:25.204Z,16.02
2022-12-31T05:40:22.157Z,15.65
2022-12-31T05:41:18.827Z,15.20
2022-12-31T05:42:15.479Z,14.63
2022-12-31T05:43:12.057Z,15.30
2022-12-31T05:44:10.710Z,14.85
2022-12-31T05:45:08.043Z,15.05
2022-12-31T05:46:05.714Z,14.40
2022-12-31T05:47:02.330Z,14.20
2022-12-31T05:47:59.105Z,16.52
2022-12-31T05:48:55.712Z,16.15
2022-12-31T05:49:52.244Z,15.30
2022-12-31T05:50:49.922Z,13.05
2022-12-31T05:51:46.601Z,17.00
2022-12-31T05:52:47.624Z,14.30
2022-12-31T05:53:44.600Z,11.45
2022-12-31T05:54:41.182Z,13.27
2022-12-31T05:55:37.797Z,12.82
2022-12-31T05:56:34.458Z,13.75
2022-12-31T05:57:31.054Z,14.07
2022-12-31T05:58:27.790Z,15.75
2022-12-31T05:59:25.021Z,13.25
2022-12-31T06:00:21.635Z,14.65
2022-12-31T06:01:18.417Z,11.82
2022-12-31T06:02:15.194Z,11.25
2022-12-31T06:03:12.085Z,12.40
2022-12-31T06:04:08.867Z,13.95
2022-12-31T06:05:06.394Z,12.77
2022-12-31T06:06:03.096Z,12.90
2022-12-31T06:06:59.690Z,14.15
2022-12-31T06:07:56.272Z,22.00
2022-12-31T06:08:53.111Z,19.70
2022-12-31T06:09:49.787Z,18.63
2022-12-31T06:10:46.422Z,23.85
2022-12-31T06:11:43.279Z,20.65
2022-12-31T06:12:39.935Z,23.73
2022-12-31T06:13:36.631Z,21.77
2022-12-31T06:14:33.381Z,22.92
2022-12-31T06:15:30.330Z,20.08
2022-12-31T06:16:27.325Z,19.15
2022-12-31T06:17:23.997Z,22.50
2022-12-31T06:18:20.671Z,22.60
2022-12-31T06:19:17.532Z,21.02
2022-12-31T06:20:14.119Z,20.88
2022-12-31T06:21:10.672Z,20.20
2022-12-31T06:22:07.291Z,18.63
2022-12-31T06:23:04.382Z,20.55
2022-12-31T06:24:01.245Z,19.10
2022-12-31T06:24:57.800Z,18.77
2022-12-31T06:25:54.433Z,18.23
2022-12-31T06:26:51.114Z,17.55
2022-12-31T06:27:47.737Z,17.30
2022-12-31T06:28:44.356Z,14.02
2022-12-31T06:29:41.018Z,14.45
2022-12-31T06:30:37.642Z,17.33
2022-12-31T06:31:34.524Z,13.52
2022-12-31T06:32:31.199Z,14.23
2022-12-31T06:33:28.580Z,14.43
2022-12-31T06:34:25.199Z,13.30
2022-12-31T06:35:22.196Z,11.75
2022-12-31T06:36:19.250Z,11.35
2022-12-31T06:37:15.885Z,13.48
2022-12-31T06:38:12.507Z,10.88
2022-12-31T06:39:09.081Z,11.02
2022-12-31T06:40:06.433Z,8.40
2022-12-31T06:41:07.747Z,11.55
2022-12-31T06:42:04.879Z,10.55
2022-12-31T06:43:01.432Z,10.73
2022-12-31T06:43:58.172Z,13.30
2022-12-31T06:44:54.688Z,11.85
2022-12-31T06:45:51.375Z,10.32
2022-12-31T06:46:49.877Z,9.32
2022-12-31T06:47:46.621Z,8.68
2022-12-31T06:48:45.004Z,9.40
2022-12-31T06:49:41.571Z,8.40
2022-12-31T06:50:39.438Z,9.38
2022-12-31T06:51:35.990Z,9.50
2022-12-31T06:52:32.910Z,10.85
2022-12-31T06:53:29.501Z,9.35
2022-12-31T06:54:26.473Z,9.90
2022-12-31T06:55:23.433Z,9.60
2022-12-31T06:56:26.622Z,8.85
2022-12-31T06:57:26.609Z,9.68
2022-12-31T06:58:23.815Z,10.38
2022-12-31T06:59:27.404Z,10.38
2022-12-31T07:00:24.274Z,8.75
2022-12-31T07:01:42.630Z,9.25
2022-12-31T07:03:17.742Z,9.05
2022-12-31T07:04:17.397Z,9.55
2022-12-31T07:05:46.596Z,10.23
2022-12-31T07:07:00.423Z,9.65
2022-12-31T07:08:32.398Z,8.90
2022-12-31T07:09:56.049Z,8.55
2022-12-31T07:11:26.864Z,8.38
2022-12-31T07:12:57.474Z,8.85
2022-12-31T07:14:09.751Z,8.30
2022-12-31T07:15:13.126Z,8.70
2022-12-31T07:16:30.847Z,10.05
2022-12-31T07:17:55.360Z,9.63
2022-12-31T07:19:12.431Z,10.82
2022-12-31T07:20:15.312Z,13.05
2022-12-31T07:21:14.920Z,14.27
2022-12-31T07:22:15.285Z,14.70
2022-12-31T07:23:12.215Z,12.73
2022-12-31T07:24:10.663Z,15.80
2022-12-31T07:25:08.003Z,15.35
2022-12-31T07:26:43.011Z,10.88
2022-12-31T07:28:04.478Z,12.88
2022-12-31T07:29:25.645Z,12.95
2022-12-31T07:30:33.194Z,13.10
2022-12-31T07:32:07.142Z,11.95
2022-12-31T07:33:40.896Z,11.95
2022-12-31T07:34:40.307Z,11.27
2022-12-31T07:36:14.195Z,12.90
2022-12-31T07:37:27.608Z,11.48
2022-12-31T07:38:57.307Z,12.02
2022-12-31T07:40:15.904Z,11.57
2022-12-31T07:41:18.193Z,12.15
2022-12-31T07:43:22.641Z,11.35
2022-12-31T07:44:30.158Z,10.73
2022-12-31T07:45:42.359Z,10.98
2022-12-31T07:46:51.293Z,11.87
2022-12-31T07:47:48.426Z,12.23
2022-12-31T07:48:45.610Z,12.27
2022-12-31T07:49:44.125Z,13.20
2022-12-31T07:50:40.983Z,11.50
2022-12-31T07:51:38.111Z,11.85
2022-12-31T07:52:35.108Z,12.93
2022-12-31T07:53:32.056Z,11.85
2022-12-31T07:54:28.651Z,13.57
2022-12-31T07:55:25.764Z,12.82
2022-12-31T07:56:22.455Z,12.48
2022-12-31T07:57:20.804Z,11.65
2022-12-31T07:58:53.466Z,12.63
2022-12-31T08:00:06.956Z,12.07
2022-12-31T08:01:04.397Z,12.10
2022-12-31T08:02:22.873Z,13.60
2022-12-31T08:04:00.216Z,14.57
2022-12-31T08:05:12.066Z,14.65
2022-12-31T08:06:08.866Z,14.93
2022-12-31T08:07:31.777Z,15.30
2022-12-31T08:08:50.123Z,15.50
2022-12-31T08:09:58.737Z,15.65
2022-12-31T08:11:18.383Z,14.25
2022-12-31T08:12:15.786Z,15.50
2022-12-31T08:13:13.087Z,19.70
2022-12-31T08:14:13.280Z,17.10
2022-12-31T08:15:18.443Z,17.50
2022-12-31T08:16:15.481Z,20.63
2022-12-31T08:17:17.128Z,19.83
2022-12-31T08:18:14.130Z,18.00
2022-12-31T08:19:18.900Z,20.38
2022-12-31T08:20:17.513Z,20.70
2022-12-31T08:21:43.191Z,19.70
2022-12-31T08:22:55.067Z,18.30
2022-12-31T08:24:19.967Z,19.17
2022-12-31T08:25:38.129Z,19.08
2022-12-31T08:26:53.347Z,16.75
2022-12-31T08:28:14.388Z,20.45
2022-12-31T08:29:11.119Z,21.90
2022-12-31T08:30:21.306Z,19.92
2022-12-31T08:31:30.928Z,21.40
2022-12-31T08:33:12.909Z,22.80
2022-12-31T08:34:31.034Z,24.05
2022-12-31T08:36:41.423Z,20.02
2022-12-31T08:37:46.947Z,25.55
2022-12-31T08:39:06.327Z,22.08
2022-12-31T08:40:12.359Z,22.45
2022-12-31T08:41:18.440Z,22.75
2022-12-31T08:42:48.108Z,21.67
2022-12-31T08:43:48.238Z,24.52
2022-12-31T08:45:00.707Z,22.92
2022-12-31T08:45:58.596Z,23.20
2022-12-31T08:47:07.473Z,20.80
2022-12-31T08:48:32.890Z,23.63
2022-12-31T08:49:32.580Z,22.45
2022-12-31T08:50:29.994Z,23.23
2022-12-31T08:51:27.229Z,20.75
2022-12-31T08:52:26.369Z,25.08
2022-12-31T08:53:23.288Z,20.58
2022-12-31T08:54:20.186Z,20.88
2022-12-31T08:55:18.876Z,23.00
2022-12-31T08:56:26.662Z,24.48
2022-12-31T08:57:42.287Z,23.75
2022-12-31T08:59:08.512Z,29.30
2022-12-31T09:00:18.807Z,24.10
2022-12-31T09:01:21.749Z,22.63
2022-12-31T09:02:37.090Z,22.40
2022-12-31T09:03:39.472Z,22.40
2022-12-31T09:04:55.271Z,27.35
2022-12-31T09:06:16.219Z,27.85
2022-12-31T09:07:14.227Z,25.63
2022-12-31T09:08:23.505Z,26.55
2022-12-31T09:09:33.084Z,27.63
2022-12-31T09:10:34.043Z,29.08
2022-12-31T09:12:06.085Z,25.90
2022-12-31T09:13:21.687Z,25.02
2022-12-31T09:14:40.178Z,26.90
2022-12-31T09:15:43.877Z,28.92
2022-12-31T09:16:40.511Z,24.83
2022-12-31T09:17:44.956Z,26.92
2022-12-31T09:18:43.081Z,29.40
2022-12-31T09:19:39.651Z,27.25
2022-12-31T09:20:44.713Z,27.13
2022-12-31T09:21:45.241Z,26.00
2022-12-31T09:22:42.121Z,31.27
2022-12-31T09:23:39.743Z,28.95
2022-12-31T09:24:36.665Z,28.58
2022-12-31T09:25:33.693Z,30.77
2022-12-31T09:26:39.405Z,27.30
2022-12-31T09:27:51.854Z,26.35
2022-12-31T09:28:51.077Z,28.27
2022-12-31T09:30:01.720Z,32.50
2022-12-31T09:31:28.100Z,29.10
2022-12-31T09:32:30.864Z,26.70
2022-12-31T09:33:40.400Z,30.63
2022-12-31T09:34:54.136Z,28.23
2022-12-31T09:36:01.644Z,26.83
2022-12-31T09:37:05.380Z,25.17
2022-12-31T09:38:15.142Z,30.00
2022-12-31T09:39:39.798Z,25.17
2022-12-31T09:41:15.110Z,30.67
2022-12-31T09:42:26.802Z,26.70
2022-12-31T09:43:42.103Z,28.08
2022-12-31T09:44:54.286Z,28.23
2022-12-31T09:46:03.600Z,30.58
2022-12-31T09:47:27.821Z,25.08
2022-12-31T09:48:46.171Z,23.10
2022-12-31T09:50:31.574Z,22.30
2022-12-31T09:51:30.189Z,24.20
2022-12-31T09:52:57.596Z,25.15
2022-12-31T09:54:15.699Z,23.95
2022-12-31T09:55:12.274Z,26.42
2022-12-31T09:56:26.212Z,25.23
2022-12-31T09:57:25.635Z,26.35
2022-12-31T09:58:41.863Z,27.13
2022-12-31T09:59:51.454Z,24.65
2022-12-31T10:01:01.350Z,25.17
2022-12-31T10:02:18.537Z,29.08
2022-12-31T10:03:37.063Z,27.67
2022-12-31T10:04:39.982Z,25.90
2022-12-31T10:05:48.498Z,28.85
2022-12-31T10:07:15.661Z,30.17
2022-12-31T10:08:49.849Z,28.60
2022-12-31T10:10:21.763Z,26.42
2022-12-31T10:11:39.626Z,24.10
2022-12-31T10:13:03.625Z,24.33
2022-12-31T10:14:03.171Z,24.67
2022-12-31T10:15:23.969Z,24.27
2022-12-31T10:16:43.125Z,22.90
2022-12-31T10:18:04.002Z,21.88
2022-12-31T10:19:12.730Z,23.55
2022-12-31T10:20:37.758Z,24.63
2022-12-31T10:22:08.155Z,24.52
2022-12-31T10:23:26.141Z,27.05
2022-12-31T10:24:50.437Z,28.50
2022-12-31T10:25:49.869Z,25.88
2022-12-31T10:27:01.849Z,27.25
2022-12-31T10:28:14.262Z,24.98
2022-12-31T10:29:19.568Z,27.40
2022-12-31T10:30:19.349Z,31.10
2022-12-31T10:31:45.420Z,29.75
2022-12-31T10:32:53.874Z,30.02
2022-12-31T10:34:26.807Z,28.45
2022-12-31T10:35:23.483Z,27.48
2022-12-31T10:36:47.187Z,25.95
2022-12-31T10:39:24.276Z,26.30
2022-12-31T10:40:46.176Z,26.08
2022-12-31T10:41:49.126Z,25.88
2022-12-31T10:42:59.115Z,21.48
2022-12-31T10:44:19.973Z,20.90
2022-12-31T10:45:38.305Z,21.75
2022-12-31T10:47:10.759Z,21.75
2022-12-31T10:48:21.493Z,20.17
2022-12-31T10:49:51.807Z,22.85
2022-12-31T10:50:57.468Z,25.00
2022-12-31T10:51:54.066Z,22.85
2022-12-31T10:53:29.221Z,20.55
2022-12-31T10:54:53.497Z,25.13
2022-12-31T10:55:59.102Z,26.00
2022-12-31T10:57:13.903Z,22.90
2022-12-31T10:58:41.483Z,23.45
2022-12-31T10:59:56.630Z,26.25
2022-12-31T11:00:58.088Z,25.42
2022-12-31T11:02:11.938Z,20.45
2022-12-31T11:03:36.599Z,21.33
2022-12-31T11:05:07.989Z,18.42
2022-12-31T11:06:41.384Z,19.40
2022-12-31T11:07:49.804Z,16.00
2022-12-31T11:09:07.421Z,18.60
2022-12-31T11:10:41.354Z,13.73
2022-12-31T11:12:08.415Z,16.45
2022-12-31T11:13:29.704Z,14.38
2022-12-31T11:14:44.323Z,13.20
2022-12-31T11:15:50.087Z,15.70
2022-12-31T11:17:19.545Z,13.57
2022-12-31T11:18:38.499Z,14.13
2022-12-31T11:20:07.822Z,13.30
2022-12-31T11:21:12.537Z,15.23
2022-12-31T11:22:24.267Z,14.15
2022-12-31T11:23:35.577Z,12.27
2022-12-31T11:24:41.008Z,14.40
2022-12-31T11:26:25.198Z,12.70
2022-12-31T11:27:36.942Z,10.50
2022-12-31T11:28:45.173Z,7.10
2022-12-31T11:30:00.473Z,8.30
2022-12-31T11:31:20.120Z,7.15
2022-12-31T11:32:29.001Z,9.60
2022-12-31T11:33:31.680Z,8.50
2022-12-31T11:35:03.882Z,8.68
2022-12-31T11:36:08.864Z,8.65
2022-12-31T11:37:40.652Z,9.73
2022-12-31T11:38:51.616Z,9.50
2022-12-31T11:40:26.913Z,8.13
2022-12-31T11:41:58.991Z,9.88
2022-12-31T11:42:58.875Z,7.93
2022-12-31T11:44:16.441Z,7.60
2022-12-31T11:45:31.616Z,8.25
2022-12-31T11:46:57.127Z,8.27
2022-12-31T11:48:31.621Z,10.07
2022-12-31T11:49:59.377Z,9.27
2022-12-31T11:51:29.409Z,10.00
2022-12-31T11:52:51.074Z,8.27
2022-12-31T11:54:25.364Z,8.05
2022-12-31T11:56:28.416Z,8.05
2022-12-31T11:57:34.019Z,8.02
2022-12-31T11:58:31.314Z,9.20
2022-12-31T11:59:27.973Z,8.35
2022-12-31T12:00:27.010Z,11.13
2022-12-31T12:01:35.950Z,9.70
2022-12-31T12:02:37.109Z,7.63
2022-12-31T12:03:38.661Z,7.93
2022-12-31T12:04:35.434Z,8.35
2022-12-31T12:05:33.836Z,9.02
2022-12-31T12:06:32.915Z,9.80
2022-12-31T12:07:31.768Z,9.15
2022-12-31T12:08:31.971Z,9.05
2022-12-31T12:09:32.239Z,9.90
2022-12-31T12:10:36.468Z,10.90
2022-12-31T12:11:39.173Z,8.73
2022-12-31T12:12:40.497Z,9.23
2022-12-31T12:13:37.096Z,9.70
2022-12-31T12:14:36.039Z,8.32
2022-12-31T12:15:35.512Z,9.52
2022-12-31T12:16:32.244Z,9.57
2022-12-31T12:17:34.342Z,8.80
2022-12-31T12:18:41.108Z,10.60
2022-12-31T12:19:46.564Z,10.23
2022-12-31T12:20:46.354Z,9.70
2022-12-31T12:21:47.853Z,10.43
2022-12-31T12:22:53.214Z,8.55
2022-12-31T12:24:19.399Z,9.73
2022-12-31T12:25:20.625Z,10.52
2022-12-31T12:26:38.672Z,10.82
2022-12-31T12:27:36.435Z,8.20
2022-12-31T12:28:46.110Z,8.07
2022-12-31T12:29:42.759Z,9.57
2022-12-31T12:30:41.402Z,9.75
2022-12-31T12:31:38.842Z,11.75
2022-12-31T12:32:35.824Z,8.30
2022-12-31T12:33:46.395Z,8.52
2022-12-31T12:34:49.329Z,7.72
2022-12-31T12:35:47.638Z,8.38
2022-12-31T12:36:47.853Z,7.43
2022-12-31T12:37:44.454Z,6.13
2022-12-31T12:38:41.458Z,7.60
2022-12-31T12:39:38.145Z,7.75
2022-12-31T12:40:35.812Z,8.63
2022-12-31T12:41:32.979Z,7.15
2022-12-31T12:42:30.330Z,8.65
2022-12-31T12:43:30.284Z,9.15
2022-12-31T12:44:26.945Z,8.57
2022-12-31T12:45:36.195Z,8.65
2022-12-31T12:46:48.386Z,8.35
2022-12-31T12:47:49.051Z,7.68
2022-12-31T12:48:49.653Z,8.38
2022-12-31T12:49:48.535Z,7.85
2022-12-31T12:50:47.948Z,8.10
2022-12-31T12:52:10.217Z,8.23
2022-12-31T12:53:18.839Z,9.07
2022-12-31T12:54:37.144Z,9.30
2022-12-31T12:55:52.470Z,11.20
2022-12-31T12:56:55.165Z,13.57
2022-12-31T12:58:19.654Z,10.93
2022-12-31T12:59:34.738Z,11.00
2022-12-31T13:00:57.895Z,9.85
2022-12-31T13:01:54.751Z,13.15
2022-12-31T13:03:09.855Z,10.15
2022-12-31T13:04:43.814Z,8.77
2022-12-31T13:05:43.141Z,8.98
2022-12-31T13:06:51.694Z,10.25
2022-12-31T13:08:24.946Z,9.00
2022-12-31T13:09:54.677Z,10.27
2022-12-31T13:11:11.483Z,9.35
2022-12-31T13:13:05.324Z,8.07
2022-12-31T13:14:05.921Z,8.05
2022-12-31T13:15:21.122Z,7.20
2022-12-31T13:16:35.412Z,7.15
2022-12-31T13:17:37.829Z,9.50
2022-12-31T13:18:34.422Z,8.20
2022-12-31T13:19:37.239Z,8.73
2022-12-31T13:20:45.743Z,7.97
2022-12-31T13:22:00.543Z,8.73
2022-12-31T13:23:14.197Z,9.07
2022-12-31T13:24:29.496Z,8.27
2022-12-31T13:25:38.250Z,6.93
2022-12-31T13:26:51.815Z,7.47
2022-12-31T13:27:51.977Z,7.55
2022-12-31T13:28:52.271Z,7.78
2022-12-31T13:29:49.817Z,7.05
2022-12-31T13:30:50.803Z,7.30
2022-12-31T13:31:50.217Z,7.85
2022-12-31T13:33:01.733Z,6.60
2022-12-31T13:34:06.485Z,6.95
2022-12-31T13:35:25.316Z,6.35
2022-12-31T13:36:24.775Z,7.18
2022-12-31T13:37:35.443Z,7.35
2022-12-31T13:38:37.613Z,6.28
2022-12-31T13:39:39.477Z,6.82
2022-12-31T13:40:41.317Z,5.35
2022-12-31T13:41:55.374Z,6.22
2022-12-31T13:43:06.268Z,8.90
2022-12-31T13:44:08.774Z,7.68
2022-12-31T13:46:21.173Z,6.45
2022-12-31T13:47:33.211Z,6.70
2022-12-31T13:48:40.639Z,6.20
2022-12-31T13:49:39.953Z,6.32
2022-12-31T13:50:42.777Z,6.10
2022-12-31T13:51:42.223Z,6.60
2022-12-31T13:52:50.612Z,6.53
2022-12-31T13:54:27.672Z,6.65
2022-12-31T13:55:26.657Z,5.18
2022-12-31T13:56:27.531Z,6.65
2022-12-31T13:57:39.228Z,7.15
2022-12-31T13:58:53.887Z,6.78
2022-12-31T13:59:59.124Z,5.93
2022-12-31T14:01:06.879Z,7.60
2022-12-31T14:02:12.740Z,8.52
2022-12-31T14:03:18.549Z,7.10
2022-12-31T14:04:39.489Z,6.85
2022-12-31T14:06:08.543Z,7.35
2022-12-31T14:07:18.020Z,7.20
2022-12-31T14:08:15.898Z,6.68
2022-12-31T14:09:22.289Z,6.32
2022-12-31T14:10:28.263Z,6.40
2022-12-31T14:11:50.924Z,7.93
2022-12-31T14:13:13.230Z,7.43